Time;durP1;ratioP1;P1;durP2;ratioP2;P2;SDS_P1;SDS_P2;PMS_P1;PMS_P2;Temp;Humidity;BMP_temperature;BMP_pressure;BME280_temperature;BME280_humidity;BME280_pressure;Samples;Min_cycle;Max_cycle;Signal;HPM_P1;HPM_P2
2023/06/01 00:01:42;;;;;;;0.33;0.33;;;;;;;10.84;100.00;101027.94;4957524;28;20190;-77
2023/06/01 00:04:07;;;;;;;4.70;1.53;;;;;;;10.85;100.00;101026.88;4957840;28;20186;-77
2023/06/01 00:06:33;;;;;;;1.57;1.47;;;;;;;10.82;100.00;101021.16;4957434;28;20190;-75
2023/06/01 00:08:58;;;;;;;1.77;1.67;;;;;;;10.79;100.00;101014.38;4974392;28;20190;-77
2023/06/01 00:11:25;;;;;;;2.80;2.60;;;;;;;10.76;100.00;101012.25;4974861;28;20185;-77
2023/06/01 00:13:50;;;;;;;9.03;0.27;;;;;;;10.80;100.00;101020.66;4957406;28;20742;-77
2023/06/01 00:16:16;;;;;;;1.20;1.10;;;;;;;10.82;100.00;101011.03;4957294;28;20201;-77
2023/06/01 00:18:42;;;;;;;1.60;1.50;;;;;;;10.81;100.00;101019.53;4956328;28;20652;-77
2023/06/01 00:21:07;;;;;;;3.93;3.63;;;;;;;10.63;100.00;101018.47;4974787;28;20185;-75
2023/06/01 00:23:33;;;;;;;0.50;0.50;;;;;;;10.67;100.00;101017.56;4956965;28;20409;-77
2023/06/01 00:25:59;;;;;;;1.20;0.77;;;;;;;10.58;100.00;101018.56;4974584;28;20686;-77
2023/06/01 00:28:25;;;;;;;0.40;0.40;;;;;;;10.51;100.00;101018.13;4974120;28;20205;-77
2023/06/01 00:30:51;;;;;;;6.93;0.70;;;;;;;10.48;100.00;101016.78;4974731;28;20217;-77
2023/06/01 00:33:17;;;;;;;0.47;0.47;;;;;;;10.40;100.00;101023.72;4956824;28;20253;-76
2023/06/01 00:35:42;;;;;;;3.07;2.67;;;;;;;10.46;100.00;101020.94;4974357;28;20221;-76
2023/06/01 00:38:07;;;;;;;3.90;1.07;;;;;;;10.42;100.00;101021.53;4973649;28;20336;-77
2023/06/01 00:40:34;;;;;;;0.50;0.50;;;;;;;10.40;100.00;101021.00;4974273;28;20249;-76
2023/06/01 00:43:00;;;;;;;0.00;0.00;;;;;;;10.43;100.00;101023.16;4956733;28;20201;-77
2023/06/01 00:45:25;;;;;;;0.70;0.70;;;;;;;10.47;100.00;101020.63;4974233;28;20264;-77
2023/06/01 00:47:50;;;;;;;1.37;1.37;;;;;;;10.43;100.00;101025.88;4973953;28;20186;-75
2023/06/01 00:50:16;;;;;;;0.77;0.77;;;;;;;10.37;100.00;101021.59;4974208;28;20560;-77
2023/06/01 00:52:42;;;;;;;5.40;2.10;;;;;;;10.26;100.00;101025.56;4973843;28;20213;-77
2023/06/01 00:55:09;;;;;;;0.50;0.50;;;;;;;10.21;100.00;101022.06;4974137;28;20191;-77
2023/06/01 00:57:35;;;;;;;0.97;0.53;;;;;;;10.24;100.00;101024.25;4973322;28;20646;-77
2023/06/01 01:00:08;;;;;;;0.10;0.10;;;;;;;10.30;100.00;101020.34;4973809;28;20248;-77
2023/06/01 01:02:37;;;;;;;0.00;0.00;;;;;;;10.20;100.00;101018.53;4973835;28;20923;-77
2023/06/01 01:05:03;;;;;;;0.40;0.40;;;;;;;10.19;100.00;101024.28;4973902;28;20564;-77
2023/06/01 01:07:51;;;;;;;0.30;0.30;;;;;;;10.26;100.00;101016.56;4973299;28;20190;-76
2023/06/01 01:10:29;;;;;;;0.00;0.00;;;;;;;10.25;100.00;101028.59;4960681;28;20201;-77
2023/06/01 01:13:10;;;;;;;0.10;0.10;;;;;;;10.14;100.00;101020.53;4973680;28;20217;-76
2023/06/01 01:16:02;;;;;;;1.40;1.30;;;;;;;10.06;100.00;101018.44;4973498;28;20680;-77
2023/06/01 01:19:07;;;;;;;3.70;3.50;;;;;;;10.11;100.00;101025.75;4971445;28;20244;-76
2023/06/01 01:21:38;;;;;;;3.97;1.60;;;;;;;10.07;100.00;101020.06;4894959;29;20200;-77
2023/06/01 01:24:14;;;;;;;0.10;0.10;;;;;;;10.04;100.00;101008.94;4960204;28;20201;-77
2023/06/01 01:26:57;;;;;;;3.27;2.70;;;;;;;10.03;100.00;101029.97;4973433;28;20507;-74
2023/06/01 01:29:26;;;;;;;0.20;0.20;;;;;;;10.02;100.00;101017.41;4973086;28;20661;-77
2023/06/01 01:31:52;;;;;;;0.00;0.00;;;;;;;10.12;100.00;101025.44;4973240;28;20695;-77
2023/06/01 01:34:20;;;;;;;7.33;0.93;;;;;;;10.10;100.00;101018.66;4973246;28;20217;-77
2023/06/01 01:36:46;;;;;;;0.00;0.00;;;;;;;10.14;100.00;101023.25;4973177;28;21115;-77
2023/06/01 01:39:11;;;;;;;0.20;0.20;;;;;;;10.14;100.00;101019.72;4955592;28;20193;-77
2023/06/01 01:41:36;;;;;;;0.73;0.73;;;;;;;10.27;100.00;101020.91;4955762;28;20192;-77
2023/06/01 01:44:03;;;;;;;1.17;1.17;;;;;;;10.26;100.00;101016.56;4973264;28;20182;-77
2023/06/01 01:46:32;;;;;;;1.03;1.03;;;;;;;10.26;100.00;101009.19;4955661;28;20260;-77
2023/06/01 01:49:12;;;;;;;0.87;0.63;;;;;;;10.31;100.00;101011.03;4972612;28;20273;-77
2023/06/01 01:51:55;;;;;;;0.53;0.53;;;;;;;10.30;100.00;101012.16;4955554;28;20280;-76
2023/06/01 01:54:23;;;;;;;0.20;0.20;;;;;;;10.19;100.00;101013.38;4973042;28;20239;-77
2023/06/01 01:56:50;;;;;;;0.37;0.37;;;;;;;10.19;100.00;101014.19;4972933;28;20273;-77
2023/06/01 01:59:17;;;;;;;0.77;0.47;;;;;;;10.18;100.00;101014.47;4972440;28;20194;-75
2023/06/01 02:01:44;;;;;;;1.53;1.37;;;;;;;10.10;100.00;101005.00;4972832;28;20289;-77
2023/06/01 02:04:10;;;;;;;2.07;1.83;;;;;;;10.10;100.00;101015.94;4972915;28;20177;-75
2023/06/01 02:06:36;;;;;;;1.80;1.80;;;;;;;10.09;100.00;101008.84;4955334;28;20268;-77
2023/06/01 02:09:06;;;;;;;7.93;2.67;;;;;;;10.10;100.00;101005.00;4972529;28;20240;-77
2023/06/01 02:11:31;;;;;;;1.47;1.37;;;;;;;10.19;100.00;101006.00;4972690;28;20719;-77
2023/06/01 02:13:56;;;;;;;2.20;1.97;;;;;;;10.17;100.00;101010.13;4955087;28;20209;-77
2023/06/01 02:16:22;;;;;;;2.13;1.20;;;;;;;10.22;100.00;101007.34;4972545;28;20185;-77
2023/06/01 02:18:47;;;;;;;1.20;1.10;;;;;;;10.16;100.00;101001.13;4954849;28;20213;-77
2023/06/01 02:21:13;;;;;;;0.00;0.00;;;;;;;10.14;100.00;100998.69;4972486;28;20190;-76
2023/06/01 02:23:42;;;;;;;0.87;0.87;;;;;;;10.09;100.00;101001.47;4972330;28;20726;-77
2023/06/01 02:26:08;;;;;;;2.30;2.10;;;;;;;10.12;100.00;100995.41;4972939;28;20193;-77
2023/06/01 02:28:36;;;;;;;0.20;0.20;;;;;;;10.11;100.00;100996.53;4971616;28;20228;-77
2023/06/01 02:31:01;;;;;;;5.00;2.53;;;;;;;10.10;100.00;100997.63;4972340;28;20240;-77
2023/06/01 02:33:27;;;;;;;1.47;1.37;;;;;;;10.11;100.00;100998.44;4954628;28;20638;-76
2023/06/01 02:35:52;;;;;;;2.07;1.87;;;;;;;10.10;100.00;100997.63;4972233;28;20189;-77
2023/06/01 02:38:18;;;;;;;1.33;0.87;;;;;;;10.09;100.00;101001.47;4971833;28;20185;-77
2023/06/01 02:40:43;;;;;;;14.33;4.10;;;;;;;10.05;100.00;101005.91;4972378;28;20756;-75
2023/06/01 02:43:08;;;;;;;0.40;0.40;;;;;;;10.01;100.00;101001.34;4964958;28;20305;-77
2023/06/01 02:45:34;;;;;;;0.17;0.17;;;;;;;10.11;100.00;101004.72;4954999;28;20743;-76
2023/06/01 02:47:59;;;;;;;0.00;0.00;;;;;;;10.16;100.00;101008.50;4972165;28;20237;-77
2023/06/01 02:50:25;;;;;;;1.50;1.40;;;;;;;10.16;100.00;101012.03;4972125;28;20190;-77
2023/06/01 02:52:50;;;;;;;0.10;0.10;;;;;;;10.09;100.00;101006.94;4972020;28;20201;-77
2023/06/01 02:55:16;;;;;;;0.50;0.37;;;;;;;10.10;100.00;101002.28;4972133;28;20553;-75
2023/06/01 02:57:41;;;;;;;0.30;0.30;;;;;;;10.09;100.00;101006.13;4971574;28;20776;-77
2023/06/01 03:00:15;;;;;;;0.00;0.00;;;;;;;10.16;100.00;101001.13;4972449;28;20190;-77
2023/06/01 03:02:45;;;;;;;2.60;2.23;;;;;;;10.13;100.00;101007.19;4971788;28;20197;-77
2023/06/01 03:05:16;;;;;;;0.00;0.00;;;;;;;10.13;100.00;101002.53;4954605;28;20185;-77
2023/06/01 03:07:45;;;;;;;0.50;0.47;;;;;;;10.20;100.00;101004.88;4954265;28;20688;-77
2023/06/01 03:10:11;;;;;;;1.97;1.87;;;;;;;10.21;100.00;101005.69;4954554;28;20181;-77
2023/06/01 03:12:36;;;;;;;3.03;2.10;;;;;;;10.18;100.00;100998.09;4971696;28;20217;-77
2023/06/01 03:15:03;;;;;;;0.67;0.67;;;;;;;10.04;100.00;100995.28;4971932;28;20192;-77
2023/06/01 03:17:28;;;;;;;0.00;0.00;;;;;;;10.03;100.00;100994.47;4971394;28;20182;-74
2023/06/01 03:19:53;;;;;;;3.40;3.10;;;;;;;10.10;100.00;100996.81;4972389;28;20718;-77
2023/06/01 03:22:19;;;;;;;0.77;0.77;;;;;;;10.02;100.00;100997.50;4971635;28;20248;-76
2023/06/01 03:24:47;;;;;;;2.43;2.23;;;;;;;9.95;100.00;100992.38;4971690;28;20183;-77
2023/06/01 03:27:13;;;;;;;1.03;1.03;;;;;;;10.02;100.00;100998.31;4971805;28;20178;-77
2023/06/01 03:29:38;;;;;;;1.67;1.47;;;;;;;9.97;100.00;100997.53;4971352;28;20189;-77
2023/06/01 03:32:03;;;;;;;13.23;3.07;;;;;;;10.00;100.00;100995.06;4971416;28;20225;-76
2023/06/01 03:34:29;;;;;;;0.00;0.00;;;;;;;9.91;100.00;100999.53;4971712;28;20679;-77
2023/06/01 03:36:54;;;;;;;2.90;2.70;;;;;;;9.94;100.00;100995.41;4971723;28;20184;-77
2023/06/01 03:39:20;;;;;;;5.97;3.10;;;;;;;9.89;100.00;100996.31;4953904;28;20182;-76
2023/06/01 03:41:45;;;;;;;0.50;0.50;;;;;;;9.93;100.00;100999.25;4971650;28;20196;-77
2023/06/01 03:44:11;;;;;;;2.37;2.00;;;;;;;10.02;100.00;100990.13;4972227;28;20196;-77
2023/06/01 03:46:37;;;;;;;0.00;0.00;;;;;;;9.97;100.00;100986.63;4954259;28;20630;-77
2023/06/01 03:49:04;;;;;;;9.33;4.50;;;;;;;9.99;100.00;100993.44;4971362;28;20272;-76
2023/06/01 03:51:30;;;;;;;1.40;1.40;;;;;;;9.97;100.00;100994.81;4954142;28;20196;-77
2023/06/01 03:53:55;;;;;;;1.23;1.20;;;;;;;10.05;100.00;100986.78;4954977;28;20297;-77
2023/06/01 03:56:20;;;;;;;3.57;3.27;;;;;;;10.07;100.00;100984.56;4975198;28;20190;-76
2023/06/01 03:58:46;;;;;;;3.20;2.90;;;;;;;10.01;100.00;100995.88;4974836;28;20272;-77
2023/06/01 04:01:16;;;;;;;2.03;1.73;;;;;;;9.98;100.00;100986.38;4975178;28;20247;-77
2023/06/01 04:03:43;;;;;;;5.47;2.00;;;;;;;9.96;100.00;100991.28;4974985;28;20664;-77
2023/06/01 04:06:12;;;;;;;1.07;1.07;;;;;;;9.97;100.00;100989.34;4975357;28;20668;-77
2023/06/01 04:08:47;;;;;;;4.13;3.33;;;;;;;9.96;100.00;100995.94;4974342;28;20185;-76
2023/06/01 04:11:12;;;;;;;2.57;2.37;;;;;;;9.94;100.00;100995.41;4975076;28;20208;-77
2023/06/01 04:13:38;;;;;;;8.53;1.67;;;;;;;9.96;100.00;100994.00;4957287;28;20713;-77
2023/06/01 04:16:04;;;;;;;3.03;2.50;;;;;;;10.01;100.00;100998.59;4974693;28;20280;-77
2023/06/01 04:18:30;;;;;;;2.73;2.20;;;;;;;10.05;100.00;100994.19;4974215;28;20285;-77
2023/06/01 04:20:55;;;;;;;1.20;1.13;;;;;;;10.03;100.00;100990.94;4974710;28;20712;-77
2023/06/01 04:23:21;;;;;;;0.33;0.33;;;;;;;10.04;100.00;100987.09;4975122;28;20529;-77
2023/06/01 04:25:51;;;;;;;3.83;1.63;;;;;;;10.07;100.00;101002.88;4974970;28;20262;-77
2023/06/01 04:28:17;;;;;;;1.50;1.40;;;;;;;10.06;100.00;100993.88;4956979;28;20197;-76
2023/06/01 04:30:44;;;;;;;6.43;3.97;;;;;;;10.12;100.00;101002.78;4974548;28;20178;-77
2023/06/01 04:33:10;;;;;;;2.40;2.27;;;;;;;10.06;100.00;100999.34;4974218;28;20209;-77
2023/06/01 04:35:36;;;;;;;4.00;2.73;;;;;;;10.06;100.00;100999.34;4974162;28;20548;-77
2023/06/01 04:38:02;;;;;;;3.27;3.00;;;;;;;10.08;100.00;100999.03;4974218;28;20185;-75
2023/06/01 04:40:28;;;;;;;3.33;2.53;;;;;;;10.10;100.00;101005.00;4974306;28;20219;-77
2023/06/01 04:42:55;;;;;;;1.67;1.57;;;;;;;10.08;100.00;101007.22;4974395;28;20704;-77
2023/06/01 04:45:21;;;;;;;1.43;1.33;;;;;;;10.09;100.00;101003.41;4974480;28;20209;-77
2023/06/01 04:47:47;;;;;;;3.60;2.07;;;;;;;10.14;100.00;101006.06;4956543;28;20234;-77
2023/06/01 04:50:15;;;;;;;1.50;1.40;;;;;;;10.09;100.00;101001.47;4974385;28;20181;-76
2023/06/01 04:52:41;;;;;;;8.13;1.00;;;;;;;10.09;100.00;101004.19;4956684;28;20220;-77
2023/06/01 04:55:08;;;;;;;5.43;2.50;;;;;;;10.13;100.00;101007.19;4957135;28;20492;-77
2023/06/01 04:57:35;;;;;;;0.53;0.40;;;;;;;10.18;100.00;101006.28;4973657;28;20208;-77
2023/06/01 05:00:01;;;;;;;0.90;0.90;;;;;;;10.22;100.00;101004.63;4974831;28;20173;-77
2023/06/01 05:02:27;;;;;;;2.53;0.57;;;;;;;10.28;100.00;101003.44;4974223;28;20202;-77
2023/06/01 05:04:52;;;;;;;2.13;2.03;;;;;;;10.22;100.00;100996.41;4973743;28;20265;-77
2023/06/01 05:07:17;;;;;;;3.23;2.33;;;;;;;10.20;100.00;100990.41;4973736;28;20683;-77
2023/06/01 05:09:43;;;;;;;7.60;1.63;;;;;;;10.23;100.00;100998.84;4973953;28;20193;-77
2023/06/01 05:12:08;;;;;;;0.10;0.10;;;;;;;10.27;100.00;100993.59;4974165;28;20206;-77
2023/06/01 05:14:34;;;;;;;3.70;3.17;;;;;;;10.30;100.00;100988.38;4974263;28;20730;-76
2023/06/01 05:16:59;;;;;;;4.23;3.50;;;;;;;10.27;100.00;100990.88;4973887;28;20181;-77
2023/06/01 05:19:25;;;;;;;16.27;4.33;;;;;;;10.29;100.00;100986.75;4973437;28;20557;-77
2023/06/01 05:21:50;;;;;;;3.30;1.80;;;;;;;10.29;100.00;100991.41;4973418;28;20522;-77
2023/06/01 05:24:15;;;;;;;3.47;1.67;;;;;;;10.29;100.00;100985.97;4955861;28;20209;-77
2023/06/01 05:26:41;;;;;;;7.87;2.33;;;;;;;10.34;100.00;100988.59;4973720;28;20190;-77
2023/06/01 05:29:06;;;;;;;5.20;1.90;;;;;;;10.37;100.00;100986.06;4973839;28;20201;-78
2023/06/01 05:31:31;;;;;;;5.57;2.57;;;;;;;10.37;100.00;100983.34;4974443;28;20971;-77
2023/06/01 05:33:56;;;;;;;0.87;0.87;;;;;;;10.49;100.00;100988.38;4974874;28;20202;-76
2023/06/01 05:36:22;;;;;;;0.77;0.77;;;;;;;10.54;100.00;100988.28;4957482;28;20189;-78
2023/06/01 05:38:47;;;;;;;2.30;2.20;;;;;;;10.55;100.00;100989.09;4974838;28;20592;-77
2023/06/01 05:41:13;;;;;;;1.03;1.03;;;;;;;10.49;100.00;100984.81;4974486;28;20555;-77
2023/06/01 05:43:38;;;;;;;1.27;1.27;;;;;;;10.56;100.00;100983.34;4974341;28;20698;-78
2023/06/01 05:46:04;;;;;;;2.10;1.90;;;;;;;10.57;100.00;100978.69;4973887;28;20213;-76
2023/06/01 05:48:29;;;;;;;17.93;2.00;;;;;;;10.60;100.00;100986.28;4973403;28;20589;-77
2023/06/01 05:50:55;;;;;;;0.80;0.80;;;;;;;10.62;100.00;100979.41;4973092;28;20182;-76
2023/06/01 05:53:24;;;;;;;0.70;0.70;;;;;;;10.68;100.00;100988.31;4971854;28;20225;-82
2023/06/01 05:55:49;;;;;;;0.37;0.37;;;;;;;10.59;100.00;100977.28;4956520;28;20181;-76
2023/06/01 05:58:14;;;;;;;0.47;0.47;;;;;;;10.59;100.00;100980.00;4972549;28;20232;-75
2023/06/01 06:00:41;;;;;;;1.47;1.37;;;;;;;10.63;100.00;100981.03;4973035;28;20613;-77
2023/06/01 06:03:06;;;;;;;0.50;0.50;;;;;;;10.75;100.00;100972.38;4955174;28;20715;-77
2023/06/01 06:05:32;;;;;;;0.20;0.20;;;;;;;10.67;100.00;100976.59;4973040;28;20178;-75
2023/06/01 06:07:57;;;;;;;0.93;0.93;;;;;;;10.70;100.00;100980.63;4972537;28;20186;-77
2023/06/01 06:10:22;;;;;;;0.93;0.93;;;;;;;10.67;100.00;100982.03;4972813;28;20220;-77
2023/06/01 06:12:48;;;;;;;2.90;0.83;;;;;;;10.75;100.00;100983.31;4972765;28;20681;-75
2023/06/01 06:15:13;;;;;;;1.67;1.67;;;;;;;10.80;100.00;100987.84;4972934;28;20185;-75
2023/06/01 06:17:38;;;;;;;0.07;0.07;;;;;;;10.82;100.00;100983.72;4954207;28;20272;-76
2023/06/01 06:20:08;;;;;;;1.33;1.23;;;;;;;10.89;100.00;100981.41;4956127;28;20731;-77
2023/06/01 06:22:51;;;;;;;0.03;0.00;;;;;;;10.98;100.00;100985.06;4971327;28;20700;-76
2023/06/01 06:25:17;;;;;;;2.63;1.83;;;;;;;11.07;100.00;100989.84;4972111;28;20185;-76
2023/06/01 06:27:42;;;;;;;0.73;0.73;;;;;;;11.07;100.00;100984.38;4955070;28;20217;-77
2023/06/01 06:30:08;;;;;;;1.27;1.17;;;;;;;11.03;100.00;100982.25;4944374;28;20210;-76
2023/06/01 06:32:34;;;;;;;0.10;0.10;;;;;;;11.00;100.00;100984.78;4971896;28;20221;-76
2023/06/01 06:34:59;;;;;;;0.13;0.13;;;;;;;10.95;100.00;100976.66;4972721;28;20188;-76
2023/06/01 06:37:25;;;;;;;1.70;1.60;;;;;;;10.87;100.00;100980.09;4972120;28;20182;-75
2023/06/01 06:39:50;;;;;;;2.53;2.20;;;;;;;10.91;100.00;100968.25;4972343;28;20181;-77
2023/06/01 06:42:16;;;;;;;2.17;2.07;;;;;;;10.86;100.00;100976.56;4954988;28;20297;-75
2023/06/01 06:44:41;;;;;;;2.13;1.93;;;;;;;10.91;100.00;100981.13;4954898;28;20188;-75
2023/06/01 06:47:06;;;;;;;0.63;0.63;;;;;;;10.89;100.00;100984.16;4972273;28;20181;-77
2023/06/01 06:49:32;;;;;;;0.90;0.90;;;;;;;11.01;100.00;100980.94;4972034;28;20615;-76
2023/06/01 06:51:57;;;;;;;1.03;0.97;;;;;;;11.02;100.00;100993.50;4946043;28;20209;-77
2023/06/01 06:54:22;;;;;;;2.77;2.03;;;;;;;11.04;100.00;100991.28;4972317;28;20201;-77
2023/06/01 06:56:48;;;;;;;0.63;0.63;;;;;;;11.09;100.00;100991.16;4972108;28;20265;-75
2023/06/01 06:59:14;;;;;;;3.20;2.93;;;;;;;11.12;100.00;100993.28;4971922;28;20548;-75
2023/06/01 07:01:40;;;;;;;5.53;3.20;;;;;;;11.15;100.00;100992.72;4968837;28;20599;-77
2023/06/01 07:04:06;;;;;;;5.90;4.67;;;;;;;11.16;100.00;100999.81;4967825;28;20177;-77
2023/06/01 07:06:32;;;;;;;3.77;3.00;;;;;;;11.25;100.00;100989.78;4972034;28;20186;-77
2023/06/01 07:08:58;;;;;;;2.53;1.50;;;;;;;11.28;100.00;101000.13;4951145;28;20218;-77
2023/06/01 07:11:26;;;;;;;8.43;4.30;;;;;;;11.30;100.00;101000.63;4954303;28;20654;-77
2023/06/01 07:13:52;;;;;;;5.73;5.17;;;;;;;11.23;100.00;100996.66;4967952;28;20209;-77
2023/06/01 07:16:17;;;;;;;8.37;7.53;;;;;;;11.16;100.00;100999.81;4954663;28;20186;-77
2023/06/01 07:18:42;;;;;;;7.40;6.73;;;;;;;11.18;100.00;100997.56;4971458;28;20185;-77
2023/06/01 07:21:08;;;;;;;14.67;3.63;;;;;;;11.19;100.00;100993.72;4971427;28;20824;-77
2023/06/01 07:23:33;;;;;;;4.33;4.00;;;;;;;11.23;100.00;100989.25;4954480;28;20201;-76
2023/06/01 07:25:58;;;;;;;10.60;5.90;;;;;;;11.30;100.00;100989.69;4954127;28;20762;-77
2023/06/01 07:28:26;;;;;;;1.23;1.13;;;;;;;11.33;100.00;100982.81;4956122;28;20670;-77
2023/06/01 07:30:55;;;;;;;2.20;0.90;;;;;;;11.37;100.00;100983.81;4976231;28;20210;-77
2023/06/01 07:33:20;;;;;;;4.40;4.00;;;;;;;11.38;100.00;100990.91;4950634;28;20214;-80
2023/06/01 07:35:46;;;;;;;11.00;6.37;;;;;;;11.44;100.00;100995.16;4977493;28;20188;-77
2023/06/01 07:38:12;;;;;;;6.83;4.13;;;;;;;11.41;100.00;100995.75;4953180;28;20268;-77
2023/06/01 07:40:37;;;;;;;2.03;1.10;;;;;;;11.42;100.00;100991.91;4974482;28;20181;-77
2023/06/01 07:43:03;;;;;;;1.97;1.87;;;;;;;11.31;100.00;100994.03;4978287;28;20276;-77
2023/06/01 07:45:28;;;;;;;9.30;4.23;;;;;;;11.26;100.00;100991.38;4960593;28;20221;-77
2023/06/01 07:47:53;;;;;;;4.43;4.13;;;;;;;11.31;100.00;100990.50;4977804;28;20178;-77
2023/06/01 07:50:19;;;;;;;2.80;1.77;;;;;;;11.35;100.00;100996.16;4958966;28;20182;-76
2023/06/01 07:52:45;;;;;;;0.63;0.63;;;;;;;11.31;100.00;100990.50;4976803;28;20221;-76
2023/06/01 07:55:10;;;;;;;3.40;3.00;;;;;;;11.31;100.00;100998.72;4958516;28;20209;-75
2023/06/01 07:57:36;;;;;;;3.43;2.63;;;;;;;11.40;100.00;101002.34;4976094;28;20217;-77
2023/06/01 08:00:03;;;;;;;2.53;2.33;;;;;;;11.53;100.00;100996.06;4976313;28;20183;-76
2023/06/01 08:02:29;;;;;;;5.03;4.60;;;;;;;11.55;100.00;100996.56;4975786;28;20209;-76
2023/06/01 08:04:56;;;;;;;1.00;0.53;;;;;;;11.69;100.00;100996.56;4976052;28;20192;-77
2023/06/01 08:07:22;;;;;;;2.37;2.10;;;;;;;11.73;100.00;100991.31;4958427;28;20656;-76
2023/06/01 08:09:47;;;;;;;6.37;2.23;;;;;;;11.68;100.00;100992.22;4957756;28;20301;-77
2023/06/01 08:12:14;;;;;;;3.50;2.60;;;;;;;11.59;100.00;100997.59;4975564;28;20206;-77
2023/06/01 08:14:40;;;;;;;2.13;1.93;;;;;;;11.64;100.00;100993.94;4975942;28;20216;-75
2023/06/01 08:17:06;;;;;;;0.90;0.90;;;;;;;11.61;100.00;100998.09;4975900;28;20188;-80
2023/06/01 08:19:33;;;;;;;1.70;1.60;;;;;;;11.67;100.00;100998.81;4975358;28;20657;-77
2023/06/01 08:21:58;;;;;;;2.50;1.33;;;;;;;11.72;100.00;101001.47;4958293;28;20213;-78
2023/06/01 08:24:24;;;;;;;0.00;0.00;;;;;;;11.84;100.00;100998.22;4976036;28;20184;-77
2023/06/01 08:26:54;;;;;;;1.80;1.70;;;;;;;11.91;100.00;100993.94;4977216;28;20192;-77
2023/06/01 08:29:20;;;;;;;1.27;1.00;;;;;;;11.95;100.00;100990.59;4958515;28;20191;-82
2023/06/01 08:31:45;;;;;;;2.23;1.20;;;;;;;11.96;100.00;100989.47;4975561;28;20219;-80
2023/06/01 08:34:11;;;;;;;3.93;2.43;;;;;;;11.88;100.00;100988.28;4976440;28;20214;-83
2023/06/01 08:36:36;;;;;;;1.40;1.20;;;;;;;11.88;100.00;100994.56;4959075;28;20192;-82
2023/06/01 08:39:19;;;;;;;0.93;0.93;;;;;;;11.93;100.00;100992.84;4977286;28;20196;-81
2023/06/01 08:42:06;;;;;;;1.10;0.93;;;;;;;11.95;100.00;100990.59;4959478;28;20209;-82
2023/06/01 08:44:38;;;;;;;0.20;0.20;;;;;;;12.10;100.00;100993.81;4958499;28;20224;-79
2023/06/01 08:47:04;;;;;;;0.20;0.20;;;;;;;12.21;100.00;100988.91;4958596;28;20658;-80
2023/06/01 08:49:34;;;;;;;0.80;0.80;;;;;;;12.33;100.00;100997.41;4958546;28;20185;-77
2023/06/01 08:52:02;;;;;;;0.10;0.10;;;;;;;12.37;100.00;100997.59;4975713;28;20219;-77
2023/06/01 08:54:30;;;;;;;0.60;0.60;;;;;;;12.47;100.00;101000.09;4958460;28;20296;-77
2023/06/01 08:56:59;;;;;;;2.13;1.50;;;;;;;12.52;100.00;100998.03;4975984;28;20182;-77
2023/06/01 08:59:25;;;;;;;0.27;0.27;;;;;;;12.55;100.00;100990.31;4975271;28;20190;-77
2023/06/01 09:01:52;;;;;;;3.40;3.07;;;;;;;12.40;100.00;100980.53;4974933;28;20194;-77
2023/06/01 09:04:18;;;;;;;0.20;0.20;;;;;;;12.38;100.00;100988.25;4957699;28;20648;-77
2023/06/01 09:06:43;;;;;;;0.20;0.20;;;;;;;12.23;100.00;100989.41;4975261;28;20187;-77
2023/06/01 09:09:11;;;;;;;22.90;1.97;;;;;;;12.31;100.00;100985.94;4957340;28;20189;-77
2023/06/01 09:11:36;;;;;;;0.33;0.33;;;;;;;12.36;100.00;100985.81;4957257;28;20190;-77
2023/06/01 09:14:04;;;;;;;1.23;0.97;;;;;;;12.29;100.00;100974.47;4974611;28;20759;-78
2023/06/01 09:16:36;;;;;;;3.33;1.87;;;;;;;12.22;100.00;100974.09;4973876;28;20185;-77
2023/06/01 09:19:02;;;;;;;0.93;0.93;;;;;;;12.19;100.00;100978.28;4973555;28;20182;-77
2023/06/01 09:21:27;;;;;;;1.23;1.13;;;;;;;12.13;100.00;100964.97;4956389;28;20185;-77
2023/06/01 09:23:53;;;;;;;2.20;2.07;;;;;;;12.03;100.00;100968.78;4973904;28;20602;-77
2023/06/01 09:26:25;;;;;;;1.17;1.17;;;;;;;11.99;100.00;100964.22;4973457;28;20220;-76
2023/06/01 09:28:54;;;;;;;0.07;0.07;;;;;;;12.11;100.00;100964.47;4955993;28;20182;-77
2023/06/01 09:31:35;;;;;;;0.00;0.00;;;;;;;12.17;100.00;100975.03;4973601;28;20182;-77
2023/06/01 09:34:03;;;;;;;1.37;1.27;;;;;;;12.20;100.00;100963.44;4973592;28;20219;-76
2023/06/01 09:36:28;;;;;;;4.53;2.60;;;;;;;12.23;100.00;100945.59;4973316;28;20197;-76
2023/06/01 09:39:04;;;;;;;3.07;1.53;;;;;;;12.40;100.00;100962.16;4973177;28;20225;-77
2023/06/01 09:41:54;;;;;;;16.10;1.87;;;;;;;12.43;100.00;100968.94;4973270;28;20193;-76
2023/06/01 09:44:27;;;;;;;0.70;0.67;;;;;;;12.24;100.00;100963.63;4973390;28;20217;-77
2023/06/01 09:46:58;;;;;;;0.00;0.00;;;;;;;12.33;100.00;100961.78;4973327;28;20188;-77
2023/06/01 09:49:28;;;;;;;1.27;1.20;;;;;;;12.42;100.00;100956.34;4972848;28;20189;-77
2023/06/01 09:52:08;;;;;;;2.80;1.70;;;;;;;12.40;100.00;100959.41;4972098;28;20191;-76
2023/06/01 09:54:39;;;;;;;0.97;0.97;;;;;;;12.37;100.00;100954.56;4973167;28;20207;-77
2023/06/01 09:57:06;;;;;;;1.17;0.60;;;;;;;12.42;100.00;100961.84;4973095;28;20217;-77
2023/06/01 09:59:41;;;;;;;1.07;0.80;;;;;;;12.49;100.00;100949.34;4955419;28;20194;-77
2023/06/01 10:02:07;;;;;;;6.30;1.20;;;;;;;12.51;100.00;100952.56;4972890;28;20243;-77
2023/06/01 10:04:36;;;;;;;9.43;1.80;;;;;;;12.61;100.00;100951.50;4972930;28;20188;-77
2023/06/01 10:07:02;;;;;;;2.73;2.27;;;;;;;12.64;100.00;100945.41;4972795;28;20185;-77
2023/06/01 10:09:29;;;;;;;2.53;2.33;;;;;;;12.59;100.00;100939.25;4972574;28;20187;-75
2023/06/01 10:11:55;;;;;;;2.17;2.07;;;;;;;12.48;100.00;100944.97;4973061;28;20201;-77
2023/06/01 10:14:23;;;;;;;8.43;2.40;;;;;;;12.47;100.00;100948.84;4972655;28;20730;-77
2023/06/01 10:16:53;;;;;;;2.47;2.30;;;;;;;12.34;100.00;100946.97;4972683;28;20265;-77
2023/06/01 10:19:21;;;;;;;1.53;1.43;;;;;;;12.20;100.00;100948.94;4972229;28;20225;-75
2023/06/01 10:21:47;;;;;;;1.57;1.47;;;;;;;12.33;100.00;100959.03;4972686;28;20189;-77
2023/06/01 10:24:14;;;;;;;1.30;1.20;;;;;;;12.31;100.00;100944.03;4955417;28;20189;-77
2023/06/01 10:26:47;;;;;;;1.77;1.67;;;;;;;12.41;100.00;100949.25;4972377;28;20193;-77
2023/06/01 10:29:13;;;;;;;1.40;1.30;;;;;;;12.47;100.00;100943.34;4972281;28;20556;-77
2023/06/01 10:31:43;;;;;;;0.00;0.00;;;;;;;12.66;100.00;100939.59;4954999;28;20189;-77
2023/06/01 10:34:12;;;;;;;0.43;0.43;;;;;;;12.81;100.00;100944.69;4955314;28;20249;-77
2023/06/01 10:36:53;;;;;;;1.80;1.70;;;;;;;12.70;100.00;100935.91;4972468;28;20268;-77
2023/06/01 10:39:29;;;;;;;1.77;1.67;;;;;;;12.65;100.00;100935.25;4971998;28;20182;-77
2023/06/01 10:42:18;;;;;;;2.00;1.90;;;;;;;12.68;100.00;100940.91;4972321;28;20189;-77
2023/06/01 10:44:44;;;;;;;15.37;2.20;;;;;;;12.74;100.00;100945.16;4972423;28;20188;-77
2023/06/01 10:47:12;;;;;;;1.03;1.03;;;;;;;12.68;100.00;100938.16;4972216;28;20550;-77
2023/06/01 10:49:46;;;;;;;0.30;0.20;;;;;;;12.75;100.00;100929.50;4971839;28;20190;-77
2023/06/01 10:52:32;;;;;;;0.50;0.50;;;;;;;12.84;100.00;100930.34;4972157;28;20245;-77
2023/06/01 10:55:19;;;;;;;0.57;0.57;;;;;;;12.92;100.00;100926.84;4972126;28;20628;-77
2023/06/01 10:57:46;;;;;;;0.47;0.47;;;;;;;12.96;100.00;100924.28;4971996;28;20194;-77
2023/06/01 11:00:28;;;;;;;0.30;0.30;;;;;;;13.11;100.00;100929.34;4955071;28;20252;-75
2023/06/01 11:02:53;;;;;;;1.27;1.17;;;;;;;13.24;99.60;100928.47;4972036;28;20293;-77
2023/06/01 11:05:43;;;;;;;0.30;0.30;;;;;;;13.24;97.41;100922.16;4973605;28;20278;-77
2023/06/01 11:08:30;;;;;;;1.97;1.33;;;;;;;13.29;96.32;100920.09;4971766;28;20249;-76
2023/06/01 11:10:58;;;;;;;0.40;0.40;;;;;;;13.21;96.02;100914.59;4973373;28;20192;-78
2023/06/01 11:13:34;;;;;;;0.80;0.80;;;;;;;13.34;96.82;100919.97;4957872;28;20209;-77
2023/06/01 11:16:07;;;;;;;1.73;0.50;;;;;;;13.32;96.24;100915.91;4974158;28;20558;-77
2023/06/01 11:18:46;;;;;;;4.77;1.00;;;;;;;13.38;96.05;100914.63;4972932;28;20213;-77
2023/06/01 11:21:17;;;;;;;1.27;0.90;;;;;;;13.38;95.15;100911.88;4973722;28;20183;-77